Time;durP1;ratioP1;P1;durP2;ratioP2;P2;SDS_P1;SDS_P2;PMS_P1;PMS_P2;Temp;Humidity;BMP_temperature;BMP_pressure;BME280_temperature;BME280_humidity;BME280_pressure;Samples;Min_cycle;Max_cycle;Signal;HPM_P1;HPM_P2
2021/05/21 00:01:15;;;;;;;12.82;9.15;;;308.10;2304.00;;;;;;5057681;28;20054;-82
2021/05/21 00:03:41;;;;;;;11.77;8.57;;;308.00;2304.00;;;;;;5075767;28;20033;-82
2021/05/21 00:06:07;;;;;;;12.50;9.30;;;308.10;2304.00;;;;;;5057488;28;20048;-82
2021/05/21 00:08:33;;;;;;;12.35;8.73;;;308.00;2304.00;;;;;;5057054;28;20470;-85
2021/05/21 00:10:59;;;;;;;14.45;8.95;;;308.10;2304.00;;;;;;5057026;28;20035;-85
2021/05/21 00:13:24;;;;;;;15.48;8.30;;;308.10;2304.00;;;;;;5074775;28;20448;-82
2021/05/21 00:15:50;;;;;;;13.73;8.85;;;308.10;2304.00;;;;;;5057340;28;20035;-85
2021/05/21 00:18:16;;;;;;;13.85;8.63;;;308.10;2304.00;;;;;;5057144;28;20381;-81
2021/05/21 00:20:41;;;;;;;16.85;9.82;;;332.80;2329.60;;;;;;5057515;28;20028;-83
2021/05/21 00:23:08;;;;;;;25.73;18.45;;;332.80;2329.60;;;;;;5075025;28;20059;-86
2021/05/21 00:25:33;;;;;;;47.88;26.63;;;308.10;2304.00;;;;;;5075365;28;20028;-80
2021/05/21 00:27:59;;;;;;;47.88;24.77;;;308.00;2304.00;;;;;;5056387;28;20604;-84
2021/05/21 00:30:25;;;;;;;;;;;307.90;2304.00;;;;;;5057413;28;20603;-81
2021/05/21 00:32:51;;;;;;;23.13;14.82;;;307.90;2304.00;;;;;;5060168;28;19911;-81
2021/05/21 00:35:17;;;;;;;13.68;10.23;;;307.90;2304.00;;;;;;5077305;28;20036;-84
2021/05/21 00:37:43;;;;;;;17.70;10.13;;;307.90;2304.00;;;;;;5076679;28;20032;-83
2021/05/21 00:40:09;;;;;;;15.90;10.65;;;307.80;2304.00;;;;;;5077240;28;20477;-85
2021/05/21 00:42:36;;;;;;;13.07;9.48;;;307.90;2304.00;;;;;;5076722;28;20035;-82
2021/05/21 00:45:04;;;;;;;12.18;9.05;;;307.80;2304.00;;;;;;5091847;28;20044;-85
2021/05/21 00:47:29;;;;;;;15.80;9.18;;;307.80;2304.00;;;;;;5097763;28;20024;-82
2021/05/21 00:49:56;;;;;;;12.13;8.52;;;307.80;2304.00;;;;;;5097109;28;20076;-82
2021/05/21 00:52:23;;;;;;;17.10;8.77;;;307.80;2304.00;;;;;;5096996;28;20023;-82
2021/05/21 00:54:51;;;;;;;14.40;8.98;;;307.70;2304.00;;;;;;5079264;28;20038;-81
2021/05/21 00:57:17;;;;;;;12.15;7.90;;;307.80;2304.00;;;;;;5076984;28;20028;-80
2021/05/21 00:59:43;;;;;;;15.88;9.20;;;307.80;2304.00;;;;;;5076828;28;20111;-82
2021/05/21 01:02:09;;;;;;;13.48;9.75;;;307.80;2304.00;;;;;;5097372;28;20039;-86
2021/05/21 01:04:35;;;;;;;15.60;8.90;;;307.80;2304.00;;;;;;5086213;28;20024;-79
2021/05/21 01:07:03;;;;;;;17.00;9.55;;;307.60;2304.00;;;;;;5089021;28;20058;-81
2021/05/21 01:09:29;;;;;;;11.40;7.97;;;307.60;2304.00;;;;;;5091383;28;20020;-81
2021/05/21 01:11:54;;;;;;;13.30;8.45;;;307.60;2304.00;;;;;;5105041;28;20020;-80
2021/05/21 01:14:20;;;;;;;;;;;307.60;2304.00;;;;;;5106536;28;20426;-80
2021/05/21 01:16:46;;;;;;;14.10;8.55;;;307.60;2304.00;;;;;;5093624;28;19998;-82
2021/05/21 01:19:12;;;;;;;15.23;9.07;;;307.60;2304.00;;;;;;5087009;28;20016;-84
2021/05/21 01:21:37;;;;;;;16.65;8.57;;;307.50;2304.00;;;;;;5086676;28;20028;-81
2021/05/21 01:24:07;;;;;;;11.95;8.27;;;307.50;2304.00;;;;;;5104877;28;20020;-81
2021/05/21 01:26:34;;;;;;;11.50;8.10;;;307.40;2304.00;;;;;;5086893;28;20023;-82
2021/05/21 01:29:00;;;;;;;14.70;8.05;;;307.60;2304.00;;;;;;5086270;28;20380;-81
2021/05/21 01:31:26;;;;;;;16.02;8.85;;;307.40;2304.00;;;;;;5103097;28;20019;-81
2021/05/21 01:33:52;;;;;;;18.70;9.27;;;307.30;2304.00;;;;;;5090188;28;20030;-82
2021/05/21 01:36:19;;;;;;;15.05;9.63;;;307.30;2304.00;;;;;;5089114;28;20016;-81
2021/05/21 01:39:06;;;;;;;13.77;9.13;;;307.30;2304.00;;;;;;5082153;28;20020;-84
2021/05/21 01:41:34;;;;;;;13.88;9.02;;;307.40;2304.00;;;;;;5086342;28;20023;-83
2021/05/21 01:44:03;;;;;;;26.98;10.38;;;307.40;2304.00;;;;;;5086395;28;20036;-85
2021/05/21 01:46:29;;;;;;;15.52;9.52;;;307.30;2304.00;;;;;;5084111;28;20027;-85
2021/05/21 01:48:54;;;;;;;15.48;8.90;;;307.30;2304.00;;;;;;5084829;28;20135;-81
2021/05/21 01:51:20;;;;;;;10.98;7.90;;;307.30;2304.00;;;;;;5084344;28;20150;-81
2021/05/21 01:53:46;;;;;;;16.15;9.05;;;307.30;2304.00;;;;;;5084409;28;20077;-81
2021/05/21 01:56:12;;;;;;;;;;;307.30;2304.00;;;;;;5089879;28;20028;-81
2021/05/21 01:58:37;;;;;;;16.58;8.80;;;307.30;2304.00;;;;;;5085812;28;19911;-82
2021/05/21 02:01:04;;;;;;;19.23;10.15;;;307.20;2304.00;;;;;;5104358;28;20134;-80
2021/05/21 02:03:30;;;;;;;16.63;11.43;;;282.50;2278.40;;;;;;5086237;28;20118;-85
2021/05/21 02:05:57;;;;;;;15.55;9.30;;;282.50;2278.40;;;;;;5085705;28;20836;-82
2021/05/21 02:08:27;;;;;;;14.90;9.52;;;282.50;2278.40;;;;;;5087809;28;20110;-79
2021/05/21 02:10:56;;;;;;;13.07;8.60;;;282.40;2278.40;;;;;;5083395;28;20024;-82
2021/05/21 02:13:23;;;;;;;15.63;9.95;;;282.50;2278.40;;;;;;5090287;28;20196;-86
2021/05/21 02:15:49;;;;;;;17.83;9.85;;;282.40;2278.40;;;;;;5086965;28;20030;-81
2021/05/21 02:18:14;;;;;;;15.20;9.15;;;282.30;2278.40;;;;;;5089147;28;20019;-83
2021/05/21 02:20:42;;;;;;;20.20;9.13;;;282.30;2278.40;;;;;;5083794;28;20112;-82
2021/05/21 02:23:08;;;;;;;19.33;8.30;;;282.40;2278.40;;;;;;5086886;28;20082;-82
2021/05/21 02:25:33;;;;;;;12.90;8.15;;;282.40;2278.40;;;;;;5084330;28;20538;-82
2021/05/21 02:27:59;;;;;;;;;;;282.40;2278.40;;;;;;5084814;28;20499;-83
2021/05/21 02:30:26;;;;;;;16.23;8.27;;;282.40;2278.40;;;;;;5080665;28;19983;-81
2021/05/21 02:32:52;;;;;;;11.77;7.55;;;282.40;2278.40;;;;;;5106875;28;20481;-82
2021/05/21 02:35:18;;;;;;;14.10;9.38;;;282.40;2278.40;;;;;;5084983;28;20066;-83
2021/05/21 02:37:44;;;;;;;14.32;9.05;;;282.40;2278.40;;;;;;5087966;28;20020;-82
2021/05/21 02:40:10;;;;;;;14.13;7.93;;;282.40;2278.40;;;;;;5083790;28;20095;-85
2021/05/21 02:42:37;;;;;;;11.95;7.97;;;282.40;2278.40;;;;;;5088842;28;20130;-85
2021/05/21 02:45:04;;;;;;;18.38;10.20;;;282.20;2278.40;;;;;;5087803;28;20481;-81
2021/05/21 02:47:31;;;;;;;13.63;9.52;;;282.40;2278.40;;;;;;5082598;28;20039;-82
2021/05/21 02:49:57;;;;;;;14.15;9.23;;;282.50;2278.40;;;;;;5084918;28;20054;-84
2021/05/21 02:52:23;;;;;;;16.23;9.68;;;282.40;2278.40;;;;;;5084892;28;20015;-82
2021/05/21 02:54:49;;;;;;;13.85;9.15;;;282.40;2278.40;;;;;;5083468;28;20116;-81
2021/05/21 02:57:14;;;;;;;;;;;282.40;2278.40;;;;;;5083479;28;20024;-81
2021/05/21 02:59:40;;;;;;;15.10;8.32;;;282.40;2278.40;;;;;;5085113;28;19911;-82
2021/05/21 03:02:05;;;;;;;14.57;8.18;;;282.30;2278.40;;;;;;5082321;28;20024;-81
2021/05/21 03:04:31;;;;;;;13.82;8.25;;;282.30;2278.40;;;;;;5101922;28;20532;-84
2021/05/21 03:06:57;;;;;;;14.75;8.15;;;282.20;2278.40;;;;;;5088132;28;20049;-81
2021/05/21 03:09:23;;;;;;;11.88;7.85;;;282.20;2278.40;;;;;;5090850;28;20023;-85
2021/05/21 03:11:48;;;;;;;;;;;282.20;2278.40;;;;;;5083875;28;20358;-83
2021/05/21 03:14:14;;;;;;;12.30;7.78;;;282.20;2278.40;;;;;;5103338;28;20435;-85
2021/05/21 03:16:40;;;;;;;12.65;9.18;;;282.20;2278.40;;;;;;5087363;28;20034;-83
2021/05/21 03:19:06;;;;;;;16.15;8.18;;;282.20;2278.40;;;;;;5106627;28;20023;-82
2021/05/21 03:21:31;;;;;;;15.05;8.35;;;282.20;2278.40;;;;;;5087594;28;20016;-81
2021/05/21 03:23:57;;;;;;;12.88;7.75;;;282.20;2278.40;;;;;;5092292;28;20020;-81
2021/05/21 03:26:23;;;;;;;10.10;7.22;;;282.00;2278.40;;;;;;5088122;28;20022;-85
2021/05/21 03:28:48;;;;;;;12.50;7.85;;;282.10;2278.40;;;;;;5090696;28;20114;-81
2021/05/21 03:31:14;;;;;;;14.05;7.97;;;281.90;2278.40;;;;;;5087339;28;20069;-85
2021/05/21 03:33:40;;;;;;;13.57;8.85;;;282.00;2278.40;;;;;;5089983;28;20020;-82
2021/05/21 03:36:06;;;;;;;11.35;8.20;;;282.00;2278.40;;;;;;5086926;28;20024;-86
2021/05/21 03:38:31;;;;;;;11.38;8.05;;;281.90;2278.40;;;;;;5089749;28;20039;-84
2021/05/21 03:40:57;;;;;;;;;;;282.00;2278.40;;;;;;5092798;28;20116;-82
2021/05/21 03:43:23;;;;;;;12.05;7.40;;;282.00;2278.40;;;;;;5090997;28;19916;-85
2021/05/21 03:45:48;;;;;;;;;;;281.90;2278.40;;;;;;5087769;28;20036;-84
2021/05/21 03:48:15;;;;;;;11.73;7.68;;;281.90;2278.40;;;;;;5089976;28;19973;-85
2021/05/21 03:50:41;;;;;;;11.90;7.43;;;281.90;2278.40;;;;;;5088078;28;20028;-83
2021/05/21 03:53:07;;;;;;;12.95;8.68;;;281.90;2278.40;;;;;;5091031;28;20033;-82
2021/05/21 03:55:33;;;;;;;15.65;8.00;;;281.90;2278.40;;;;;;5086815;28;20501;-82
2021/05/21 03:58:00;;;;;;;13.80;8.13;;;281.90;2278.40;;;;;;5106004;28;20020;-83
2021/05/21 04:00:26;;;;;;;14.65;8.70;;;281.90;2278.40;;;;;;5090812;28;20024;-82
2021/05/21 04:02:53;;;;;;;13.63;8.77;;;281.90;2278.40;;;;;;5090411;28;20050;-82
2021/05/21 04:05:20;;;;;;;11.38;8.00;;;281.90;2278.40;;;;;;5106503;28;20060;-82
2021/05/21 04:07:48;;;;;;;11.73;7.70;;;281.80;2278.40;;;;;;5085907;28;20028;-83
2021/05/21 04:10:14;;;;;;;11.63;8.07;;;281.90;2278.40;;;;;;5103880;28;20012;-83
2021/05/21 04:12:40;;;;;;;10.57;8.15;;;282.00;2278.40;;;;;;5089046;28;20470;-84
2021/05/21 04:15:07;;;;;;;10.80;7.78;;;282.00;2278.40;;;;;;5090224;28;20141;-85
2021/05/21 04:17:33;;;;;;;12.40;8.30;;;282.00;2278.40;;;;;;5089181;28;20027;-85
2021/05/21 04:19:58;;;;;;;11.88;7.72;;;282.10;2278.40;;;;;;5089525;28;20024;-86
2021/05/21 04:22:25;;;;;;;11.63;8.20;;;282.10;2278.40;;;;;;5088889;28;20023;-83
2021/05/21 04:24:50;;;;;;;11.20;7.45;;;282.00;2278.40;;;;;;5089159;28;20114;-84
2021/05/21 04:27:16;;;;;;;11.50;7.45;;;282.10;2278.40;;;;;;5085375;28;20103;-85
2021/05/21 04:29:42;;;;;;;9.30;6.68;;;282.10;2278.40;;;;;;5085734;28;20062;-86
2021/05/21 04:32:07;;;;;;;;;;;282.20;2278.40;;;;;;5089406;28;20118;-83
2021/05/21 04:34:33;;;;;;;14.93;7.82;;;282.20;2278.40;;;;;;5086642;28;20011;-83
2021/05/21 04:37:00;;;;;;;9.90;7.22;;;282.20;2278.40;;;;;;5086044;28;20012;-84
2021/05/21 04:39:26;;;;;;;11.02;7.13;;;282.20;2278.40;;;;;;5088695;28;20023;-85
2021/05/21 04:41:54;;;;;;;11.57;6.88;;;282.30;2278.40;;;;;;5086369;28;20027;-81
2021/05/21 04:44:19;;;;;;;10.70;8.57;;;282.30;2278.40;;;;;;5085765;28;20493;-82
2021/05/21 04:46:45;;;;;;;10.15;6.97;;;282.30;2278.40;;;;;;5085831;28;20070;-83
2021/05/21 04:49:11;;;;;;;12.85;7.53;;;282.40;2278.40;;;;;;5088473;28;20027;-83
2021/05/21 04:51:37;;;;;;;16.05;7.45;;;282.40;2278.40;;;;;;5088363;28;20484;-87
2021/05/21 04:54:04;;;;;;;12.15;6.95;;;282.50;2278.40;;;;;;5088615;28;20110;-81
2021/05/21 04:56:30;;;;;;;10.07;7.10;;;307.20;2304.00;;;;;;5087904;28;20020;-84
2021/05/21 04:58:56;;;;;;;9.27;7.03;;;307.60;2304.00;;;;;;5085163;28;20472;-77
2021/05/21 05:01:22;;;;;;;13.02;6.75;;;307.30;2304.00;;;;;;5086120;28;20031;-83
2021/05/21 05:03:47;;;;;;;9.13;6.90;;;307.30;2304.00;;;;;;5086953;28;20020;-88
2021/05/21 05:06:13;;;;;;;;;;;307.40;2304.00;;;;;;5085602;28;20028;-84
2021/05/21 05:08:40;;;;;;;10.38;6.40;;;307.40;2304.00;;;;;;5088483;28;19911;-92
2021/05/21 05:11:06;;;;;;;10.73;6.40;;;307.40;2304.00;;;;;;5087094;28;20028;-82
2021/05/21 05:13:32;;;;;;;13.80;7.70;;;307.50;2304.00;;;;;;5094204;28;20037;-84
2021/05/21 05:15:58;;;;;;;11.98;6.70;;;307.50;2304.00;;;;;;5087475;28;20015;-84
2021/05/21 05:18:24;;;;;;;11.63;6.97;;;307.60;2304.00;;;;;;5091018;28;20034;-83
2021/05/21 05:20:50;;;;;;;8.82;6.53;;;307.60;2304.00;;;;;;5083112;28;20462;-84
2021/05/21 05:23:18;;;;;;;13.50;6.32;;;307.70;2304.00;;;;;;5087785;28;20043;-81
2021/05/21 05:25:46;;;;;;;10.65;5.95;;;307.80;2304.00;;;;;;5084758;28;20089;-80
2021/05/21 05:28:12;;;;;;;11.20;7.80;;;307.80;2304.00;;;;;;5094042;28;20018;-82
2021/05/21 05:30:39;;;;;;;11.40;7.22;;;307.80;2304.00;;;;;;5107060;28;20031;-81
2021/05/21 05:33:05;;;;;;;11.13;7.00;;;307.90;2304.00;;;;;;5102639;28;20077;-80
2021/05/21 05:35:31;;;;;;;13.13;7.40;;;307.90;2304.00;;;;;;5100133;28;20028;-83
2021/05/21 05:37:56;;;;;;;10.77;6.50;;;308.00;2304.00;;;;;;5095663;28;20439;-85
2021/05/21 05:40:22;;;;;;;8.65;6.88;;;308.10;2304.00;;;;;;5115398;28;20035;-86
2021/05/21 05:42:48;;;;;;;11.95;7.15;;;332.80;2329.60;;;;;;5097385;28;20392;-82
2021/05/21 05:45:14;;;;;;;9.35;6.85;;;332.90;2329.60;;;;;;5095833;28;20066;-83
2021/05/21 05:47:40;;;;;;;12.60;6.88;;;332.90;2329.60;;;;;;5077249;28;20114;-82
2021/05/21 05:50:06;;;;;;;10.95;6.45;;;332.90;2329.60;;;;;;5076151;28;20384;-83
2021/05/21 05:52:32;;;;;;;9.82;7.10;;;333.00;2329.60;;;;;;5096144;28;20028;-85
2021/05/21 05:54:57;;;;;;;14.05;6.55;;;333.10;2329.60;;;;;;5093098;28;20036;-82
2021/05/21 05:57:23;;;;;;;11.48;6.60;;;333.10;2329.60;;;;;;5099670;28;20043;-85
2021/05/21 05:59:49;;;;;;;10.20;7.10;;;333.20;2329.60;;;;;;5084178;28;20047;-85
2021/05/21 06:02:17;;;;;;;14.65;7.15;;;333.20;2329.60;;;;;;5084438;28;20474;-82
2021/05/21 06:04:43;;;;;;;13.85;7.43;;;333.30;2329.60;;;;;;5084827;28;20028;-91
2021/05/21 06:07:09;;;;;;;14.80;7.15;;;333.40;2329.60;;;;;;5085468;28;20031;-85
2021/05/21 06:09:35;;;;;;;8.52;6.57;;;333.40;2329.60;;;;;;5086377;28;20378;-91
2021/05/21 06:12:00;;;;;;;11.73;7.53;;;333.50;2329.60;;;;;;5087285;28;20020;-84
2021/05/21 06:14:26;;;;;;;12.70;7.63;;;333.60;2329.60;;;;;;5074774;28;20047;-85
2021/05/21 06:16:52;;;;;;;10.00;6.70;;;333.70;2329.60;;;;;;5075927;28;20077;-84
2021/05/21 06:19:17;;;;;;;13.43;7.00;;;358.40;2329.60;;;;;;5075887;28;20033;-85
2021/05/21 06:21:43;;;;;;;10.38;7.82;;;358.40;2329.60;;;;;;5076754;28;20020;-85
2021/05/21 06:24:11;;;;;;;9.82;7.05;;;358.40;2329.60;;;;;;5076758;28;20032;-88
2021/05/21 06:26:41;;;;;;;10.57;6.97;;;358.50;2329.60;;;;;;5078744;28;20397;-86
2021/05/21 06:29:07;;;;;;;9.45;6.70;;;358.70;2329.60;;;;;;5077737;28;20024;-86
2021/05/21 06:31:33;;;;;;;11.50;7.95;;;358.70;2329.60;;;;;;5076580;28;20027;-87
2021/05/21 06:33:59;;;;;;;11.10;6.80;;;358.80;2329.60;;;;;;5088391;28;20058;-88
2021/05/21 06:36:25;;;;;;;17.10;7.38;;;358.80;2329.60;;;;;;5096700;28;20152;-88
2021/05/21 06:38:51;;;;;;;9.48;6.68;;;358.90;2329.60;;;;;;5097353;28;20063;-80
2021/05/21 06:41:17;;;;;;;11.85;7.43;;;359.00;2329.60;;;;;;5095611;28;20032;-83
2021/05/21 06:43:43;;;;;;;8.52;6.18;;;359.00;2329.60;;;;;;5099171;28;20112;-91
2021/05/21 06:46:08;;;;;;;8.15;5.90;;;359.00;2329.60;;;;;;5097263;28;20113;-91
2021/05/21 06:48:35;;;;;;;11.75;6.38;;;359.10;2329.60;;;;;;5096194;28;20464;-78
2021/05/21 06:51:04;;;;;;;8.32;6.05;;;359.20;2329.60;;;;;;5119009;28;20113;-89
2021/05/21 06:53:30;;;;;;;9.73;5.95;;;359.30;2329.60;;;;;;5099504;28;20055;-84
2021/05/21 06:55:56;;;;;;;9.38;6.28;;;384.10;2329.60;;;;;;5099813;28;20485;-81
2021/05/21 06:58:24;;;;;;;9.23;6.30;;;384.20;2329.60;;;;;;5101166;28;20019;-87
2021/05/21 07:00:51;;;;;;;10.35;6.55;;;384.30;2329.60;;;;;;5101278;28;20488;-81
2021/05/21 07:03:18;;;;;;;13.65;6.90;;;384.40;2329.60;;;;;;5100287;28;20039;-82
2021/05/21 07:05:44;;;;;;;9.13;6.68;;;384.60;2329.60;;;;;;5083191;28;20032;-86
2021/05/21 07:08:13;;;;;;;10.25;6.20;;;384.70;2329.60;;;;;;5083694;28;20036;-82
2021/05/21 07:10:40;;;;;;;10.73;5.95;;;384.70;2329.60;;;;;;5083299;28;20032;-81
2021/05/21 07:13:14;;;;;;;8.75;5.95;;;384.90;2329.60;;;;;;5078828;28;20043;-80
2021/05/21 07:15:46;;;;;;;13.32;6.80;;;384.90;2329.60;;;;;;5077962;28;20481;-80
2021/05/21 07:18:12;;;;;;;9.43;6.50;;;409.60;2355.20;;;;;;5079128;28;20442;-81
2021/05/21 07:20:41;;;;;;;8.98;5.55;;;409.70;2355.20;;;;;;5078879;28;20497;-85
2021/05/21 07:23:07;;;;;;;10.48;6.88;;;409.70;2355.20;;;;;;5079168;28;20046;-85
2021/05/21 07:25:33;;;;;;;10.13;5.97;;;409.80;2355.20;;;;;;5078301;28;20123;-78
2021/05/21 07:27:59;;;;;;;9.48;6.07;;;410.00;2355.20;;;;;;5079004;28;20028;-83
2021/05/21 07:30:24;;;;;;;12.38;5.68;;;410.00;2329.60;;;;;;5077443;28;20024;-82
2021/05/21 07:32:50;;;;;;;8.68;5.43;;;410.20;2329.60;;;;;;5077948;28;20093;-80
2021/05/21 07:35:16;;;;;;;7.30;5.32;;;410.20;2252.80;;;;;;5079651;28;20504;-81
2021/05/21 07:37:43;;;;;;;9.43;4.97;;;410.30;2278.40;;;;;;5078207;28;20113;-84
2021/05/21 07:40:09;;;;;;;15.30;5.53;;;410.50;2304.00;;;;;;5078091;28;20069;-81
2021/05/21 07:42:36;;;;;;;8.00;4.97;;;435.20;2227.20;;;;;;5085634;28;20042;-83
2021/05/21 07:45:03;;;;;;;7.45;5.30;;;435.20;2304.00;;;;;;5098643;28;20051;-88
2021/05/21 07:47:29;;;;;;;7.65;5.68;;;435.30;2252.80;;;;;;5091928;28;20016;-86
2021/05/21 07:49:55;;;;;;;7.85;5.53;;;435.60;2304.00;;;;;;5077464;28;20039;-85
2021/05/21 07:52:21;;;;;;;8.70;5.55;;;435.60;2278.40;;;;;;5082749;28;20022;-83
2021/05/21 07:54:46;;;;;;;8.10;4.50;;;435.60;2278.40;;;;;;5099132;28;20027;-88
2021/05/21 07:57:12;;;;;;;7.60;5.63;;;435.80;2227.20;;;;;;5115555;28;20027;-84
2021/05/21 07:59:38;;;;;;;7.97;5.22;;;435.80;2201.60;;;;;;5097325;28;20035;-85
2021/05/21 08:02:05;;;;;;;8.05;4.95;;;435.80;2176.00;;;;;;5097463;28;20024;-83
2021/05/21 08:04:31;;;;;;;7.70;4.57;;;435.90;2150.40;;;;;;5115936;28;20024;-81
2021/05/21 08:06:56;;;;;;;9.65;5.32;;;435.90;2124.80;;;;;;5097625;28;20032;-82
2021/05/21 08:09:22;;;;;;;6.43;4.88;;;435.90;2150.40;;;;;;5094306;28;20077;-84
2021/05/21 08:11:48;;;;;;;11.93;5.00;;;436.00;2124.80;;;;;;5087361;28;20126;-86
2021/05/21 08:14:14;;;;;;;7.50;5.30;;;436.10;2150.40;;;;;;5089908;28;20048;-84
2021/05/21 08:16:40;;;;;;;7.47;4.57;;;460.80;2252.80;;;;;;5097966;28;20030;-85
2021/05/21 08:19:06;;;;;;;7.03;4.25;;;460.80;2176.00;;;;;;5079322;28;20549;-82
2021/05/21 08:21:33;;;;;;;6.10;3.75;;;460.90;2099.20;;;;;;5077443;28;20033;-86
2021/05/21 08:23:58;;;;;;;5.68;3.85;;;461.10;2073.60;;;;;;5077943;28;20098;-92
2021/05/21 08:26:27;;;;;;;6.72;3.92;;;461.10;2124.80;;;;;;5076846;28;20087;-80
2021/05/21 08:28:54;;;;;;;5.60;3.88;;;461.10;2073.60;;;;;;5080609;28;20115;-84
2021/05/21 08:31:21;;;;;;;8.15;3.60;;;461.20;2150.40;;;;;;5088282;28;20038;-87
2021/05/21 08:33:48;;;;;;;7.18;3.85;;;461.30;2022.40;;;;;;5094594;28;20020;-85
2021/05/21 08:36:14;;;;;;;9.15;3.97;;;461.40;2022.40;;;;;;5097447;28;20024;-86
2021/05/21 08:38:46;;;;;;;7.18;3.08;;;461.40;1971.20;;;;;;5096550;28;20024;-88
2021/05/21 08:41:23;;;;;;;5.57;2.90;;;461.50;1894.40;;;;;;5096873;28;20034;-88
2021/05/21 08:43:51;;;;;;;4.63;2.60;;;461.50;1920.00;;;;;;5085364;28;20047;-85
2021/05/21 08:46:19;;;;;;;6.93;3.40;;;461.50;1920.00;;;;;;5077171;28;20024;-89
2021/05/21 08:48:45;;;;;;;4.65;2.80;;;461.50;1894.40;;;;;;5076783;28;20036;-84
2021/05/21 08:51:13;;;;;;;5.25;2.97;;;461.50;1945.60;;;;;;5076563;28;20038;-79
2021/05/21 08:53:40;;;;;;;5.55;3.80;;;461.70;1945.60;;;;;;5076436;28;20048;-80
2021/05/21 08:56:07;;;;;;;5.63;3.55;;;461.70;1920.00;;;;;;5076307;28;20024;-87
2021/05/21 08:58:34;;;;;;;7.07;3.45;;;486.40;1817.60;;;;;;5075164;28;20107;-83
2021/05/21 09:01:00;;;;;;;5.25;3.55;;;486.40;1843.20;;;;;;5076168;28;20053;-86
2021/05/21 09:03:30;;;;;;;4.43;2.90;;;486.50;1945.60;;;;;;5076709;28;20028;-86
2021/05/21 09:06:20;;;;;;;6.70;3.20;;;486.50;1843.20;;;;;;5076312;28;20417;-85
2021/05/21 09:08:47;;;;;;;7.13;4.35;;;;;;;;;;5076826;28;20028;-87
2021/05/21 09:11:31;;;;;;;7.78;3.17;;;486.80;1817.60;;;;;;5076363;28;20036;-89
2021/05/21 09:14:18;;;;;;;8.80;3.80;;;486.90;1817.60;;;;;;5074937;28;20070;-89
2021/05/21 09:16:44;;;;;;;;;;;486.90;1792.00;;;;;;5077725;28;20581;-84
2021/05/21 09:19:15;;;;;;;4.95;3.53;;;487.00;1920.00;;;;;;5076273;28;19904;-92
2021/05/21 09:21:48;;;;;;;5.75;3.38;;;487.10;1843.20;;;;;;5071790;28;20028;-91
2021/05/21 09:24:15;;;;;;;4.25;2.53;;;487.30;1843.20;;;;;;5074354;28;20542;-84
2021/05/21 09:26:46;;;;;;;4.53;2.80;;;512.00;1612.80;;;;;;5076414;28;20070;-87
2021/05/21 09:29:15;;;;;;;7.20;3.55;;;512.10;1715.20;;;;;;5077028;28;20028;-84
2021/05/21 09:31:46;;;;;;;7.75;4.28;;;512.30;1766.40;;;;;;5076222;28;20478;-89
2021/05/21 09:34:14;;;;;;;7.20;3.45;;;512.50;1689.60;;;;;;5094445;28;20032;-87
2021/05/21 09:36:41;;;;;;;5.22;2.67;;;512.50;1612.80;;;;;;5079734;28;20032;-91
2021/05/21 09:39:10;;;;;;;3.95;2.60;;;512.70;1689.60;;;;;;5098115;28;20081;-91
2021/05/21 09:41:50;;;;;;;7.38;3.30;;;512.80;1612.80;;;;;;5086403;28;20029;-88
2021/05/21 09:44:20;;;;;;;6.07;2.83;;;512.90;1638.40;;;;;;5078382;28;20080;-89
2021/05/21 09:46:48;;;;;;;6.57;4.00;;;537.70;1612.80;;;;;;5087566;28;20044;-91
2021/05/21 09:49:38;;;;;;;5.78;3.92;;;537.80;1612.80;;;;;;5096192;28;20034;-85
2021/05/21 09:52:14;;;;;;;4.63;2.47;;;538.00;1587.20;;;;;;5093508;28;20012;-88
2021/05/21 09:54:56;;;;;;;4.90;2.80;;;538.10;1484.80;;;;;;5095576;28;20043;-84
2021/05/21 09:57:35;;;;;;;8.75;2.50;;;538.20;1510.40;;;;;;5093733;28;20055;-83
2021/05/21 10:00:03;;;;;;;5.07;3.00;;;538.30;1484.80;;;;;;5104820;28;20039;-85
2021/05/21 10:02:31;;;;;;;6.22;2.88;;;538.20;1664.00;;;;;;5104516;28;20063;-86
2021/05/21 10:04:58;;;;;;;6.45;2.95;;;538.40;1536.00;;;;;;5110920;28;20016;-84
2021/05/21 10:07:25;;;;;;;8.30;2.92;;;538.50;1536.00;;;;;;5091227;28;20051;-85
2021/05/21 10:09:51;;;;;;;4.38;2.90;;;538.50;1484.80;;;;;;5093613;28;20504;-83
2021/05/21 10:12:17;;;;;;;7.95;3.17;;;563.30;1484.80;;;;;;5092382;28;20030;-84
2021/05/21 10:14:53;;;;;;;7.60;2.80;;;563.50;1536.00;;;;;;5091534;28;20047;-85
2021/05/21 10:17:24;;;;;;;4.65;2.75;;;538.30;1484.80;;;;;;5095448;28;20061;-84
2021/05/21 10:19:54;;;;;;;6.30;2.63;;;538.10;1587.20;;;;;;5095379;28;20081;-86
2021/05/21 10:22:38;;;;;;;14.30;3.05;;;538.40;1510.40;;;;;;5095768;28;20110;-87
2021/05/21 10:25:32;;;;;;;3.60;2.70;;;563.20;1510.40;;;;;;5095305;28;20023;-89
2021/05/21 10:28:02;;;;;;;3.47;2.30;;;563.50;1459.20;;;;;;5091669;28;20038;-91
2021/05/21 10:30:30;;;;;;;6.70;3.00;;;538.50;1459.20;;;;;;5093345;28;20028;-84
2021/05/21 10:33:32;;;;;;;8.30;3.00;;;537.90;1536.00;;;;;;5096203;28;20032;-90
2021/05/21 10:36:16;;;;;;;4.93;3.22;;;538.20;1510.40;;;;;;5080365;28;20160;-92
2021/05/21 10:39:07;;;;;;;7.40;3.28;;;538.50;1536.00;;;;;;5113330;28;20016;-89
2021/05/21 10:41:34;;;;;;;8.70;3.25;;;563.40;1536.00;;;;;;5085814;28;20059;-88
2021/05/21 10:44:00;;;;;;;5.70;3.60;;;538.30;1536.00;;;;;;5091771;28;20051;-91
2021/05/21 10:46:28;;;;;;;13.32;4.03;;;537.80;1587.20;;;;;;5089208;28;20040;-86
2021/05/21 10:48:57;;;;;;;5.50;3.33;;;538.00;1536.00;;;;;;5084551;28;20062;-80
2021/05/21 10:51:25;;;;;;;6.70;2.67;;;538.00;1587.20;;;;;;5086369;28;20018;-78
2021/05/21 10:54:33;;;;;;;6.55;3.50;;;538.50;1484.80;;;;;;5095273;28;20031;-82
2021/05/21 10:57:19;;;;;;;7.18;3.10;;;563.40;1536.00;;;;;;5083117;28;20035;-82
2021/05/21 10:59:51;;;;;;;7.15;4.00;;;563.60;1510.40;;;;;;5112877;28;20554;-81
2021/05/21 11:02:17;;;;;;;6.65;4.35;;;563.80;1561.60;;;;;;5091949;28;20056;-80
2021/05/21 11:04:44;;;;;;;7.18;3.95;;;563.80;1433.60;;;;;;5093674;28;20027;-83
2021/05/21 11:07:10;;;;;;;7.22;4.43;;;563.30;1510.40;;;;;;5100453;28;20020;-83
2021/05/21 11:09:47;;;;;;;9.80;4.72;;;563.20;1510.40;;;;;;5088028;28;20397;-87
2021/05/21 11:12:17;;;;;;;10.13;4.25;;;563.60;1536.00;;;;;;5092818;28;20111;-88
2021/05/21 11:14:48;;;;;;;5.72;4.47;;;563.60;1536.00;;;;;;5094918;28;20035;-83
2021/05/21 11:17:27;;;;;;;5.72;3.30;;;563.80;1484.80;;;;;;5093625;28;20027;-84
2021/05/21 11:19:55;;;;;;;7.10;4.55;;;563.50;1510.40;;;;;;5084933;28;20023;-93
2021/05/21 11:22:37;;;;;;;6.03;3.83;;;563.60;1484.80;;;;;;5082225;28;20103;-81
2021/05/21 11:25:13;;;;;;;7.95;3.75;;;563.60;1484.80;;;;;;5077553;28;20470;-86
2021/05/21 11:27:39;;;;;;;5.43;3.95;;;563.60;1561.60;;;;;;5074417;28;20044;-82
2021/05/21 11:30:06;;;;;;;4.05;2.90;;;;;;;;;;5110993;28;20024;-83
2021/05/21 11:32:33;;;;;;;5.00;3.08;;;564.10;1305.60;;;;;;5094887;28;20024;-83
2021/05/21 11:34:58;;;;;;;5.60;2.88;;;563.90;1280.00;;;;;;5094691;28;20427;-82
2021/05/21 11:37:30;;;;;;;5.00;3.08;;;564.00;1331.20;;;;;;5096472;28;20026;-86
2021/05/21 11:39:56;;;;;;;5.68;2.85;;;588.80;1280.00;;;;;;5098754;28;20031;-86
2021/05/21 11:42:23;;;;;;;7.47;5.55;;;588.80;1280.00;;;;;;5115964;28;20024;-82
2021/05/21 11:44:53;;;;;;;12.43;9.73;;;589.00;1280.00;;;;;;5094838;28;20055;-77
2021/05/21 11:47:31;;;;;;;7.43;5.55;;;589.20;1280.00;;;;;;5105383;28;20015;-89
2021/05/21 11:49:58;;;;;;;4.93;3.42;;;589.20;1228.80;;;;;;5103777;28;20019;-86
2021/05/21 11:52:24;;;;;;;9.45;2.80;;;589.20;1254.40;;;;;;5087419;28;20028;-90
2021/05/21 11:54:51;;;;;;;8.00;3.20;;;589.20;1280.00;;;;;;5088755;28;20062;-85
2021/05/21 11:57:20;;;;;;;6.90;2.95;;;589.00;1254.40;;;;;;5079903;28;20021;-88
2021/05/21 11:59:49;;;;;;;7.20;2.95;;;589.10;1228.80;;;;;;5078171;28;20540;-92
2021/05/21 12:02:16;;;;;;;4.70;2.53;;;589.20;1254.40;;;;;;5077919;28;20032;-90
2021/05/21 12:04:43;;;;;;;4.00;2.40;;;589.30;1177.60;;;;;;5081964;28;20533;-86
2021/05/21 12:07:37;;;;;;;10.45;2.80;;;589.00;1152.00;;;;;;5098432;28;20027;-86
2021/05/21 12:10:04;;;;;;;5.00;2.50;;;588.90;1152.00;;;;;;5095128;28;20036;-87
2021/05/21 12:12:36;;;;;;;4.25;2.28;;;589.00;1228.80;;;;;;5098384;28;20020;-86
2021/05/21 12:15:07;;;;;;;2.97;1.95;;;589.00;1177.60;;;;;;5095913;28;20044;-86
2021/05/21 12:17:35;;;;;;;7.53;2.47;;;589.20;1126.40;;;;;;5094501;28;20035;-83
2021/05/21 12:20:04;;;;;;;2.75;1.98;;;589.40;1126.40;;;;;;5089477;28;20062;-80